This is the latest recevied weather packets stored in our database for station/object CE1RLP-31. If no packets are shown the sender has not sent any weather packets the latest 1 day(s).
| Time | Temp. | Humidity | Pressure | Rain* | Wind** | Luminosity | Snow |
|---|---|---|---|---|---|---|---|
| 1778100769 | 13.89° C | 19% | 1100 hPa | - | - | - | - |
| 1778099869 | 13.89° C | 24% | 1100.1 hPa | - | - | - | - |
| 1778098969 | 14.44° C | 26% | 1100 hPa | - | - | - | - |
| 1778098069 | 14.44° C | 25% | 1100 hPa | - | - | - | - |
| 1778097169 | 15.56° C | 24% | 1099.9 hPa | - | - | - | - |
| 1778090868 | 18.33° C | 21% | 1100.4 hPa | - | - | - | - |
| 1778089068 | 18.33° C | 21% | 1100.6 hPa | - | - | - | - |
| 1778088168 | 18.89° C | 20% | 1100.6 hPa | - | - | - | - |
| 1778087268 | 18.33° C | 20% | 1100.5 hPa | - | - | - | - |
| 1778077368 | 14.44° C | 16% | 1101.3 hPa | - | - | - | - |
| 1778076468 | 13.89° C | 17% | 1101.1 hPa | - | - | - | - |
| 1778075568 | 13.33° C | 17% | 1101 hPa | - | - | - | - |
| 1778074668 | 12.78° C | 17% | 1100.9 hPa | - | - | - | - |
| 1778073768 | 12.22° C | 17% | 1100.8 hPa | - | - | - | - |
| 1778068367 | 9.44° C | 19% | 1100.4 hPa | - | - | - | - |
| 1778067467 | 9.44° C | 20% | 1100.2 hPa | - | - | - | - |
| 1778066567 | 9.44° C | 19% | 1100.1 hPa | - | - | - | - |
| 1778065667 | 8.89° C | 19% | 1099.9 hPa | - | - | - | - |
| 1778064767 | 8.89° C | 18% | 1099.8 hPa | - | - | - | - |
| 1778062066 | 9.44° C | 17% | 1099.5 hPa | - | - | - | - |
| 1778061168 | 9.44° C | 16% | 1099.4 hPa | - | - | - | - |
| 1778060268 | 9.44° C | 16% | 1099.3 hPa | - | - | - | - |
| 1778059368 | 9.44° C | 16% | 1099.3 hPa | - | - | - | - |
| 1778058468 | 9.44° C | 15% | 1099.2 hPa | - | - | - | - |
| 1778053967 | 9.44° C | 14% | 1099.2 hPa | - | - | - | - |
* Rain since midnight (hover to see other rain measurements)
** Current wind speed in m/s (hover to see current wind gust speed)